sensor_id;sensor_type;location;lat;lon;timestamp;P1;durP1;ratioP1;P2;durP2;ratioP2
36789;SDS011;22740;52.182;8.780;2023-04-24T00:00:26;0.77;;;0.60;;
36789;SDS011;22740;52.182;8.780;2023-04-24T00:06:34;1.02;;;0.60;;
36789;SDS011;22740;52.182;8.780;2023-04-24T00:12:42;0.60;;;0.30;;
36789;SDS011;22740;52.182;8.780;2023-04-24T00:18:51;0.93;;;0.50;;
36789;SDS011;22740;52.182;8.780;2023-04-24T00:24:59;0.32;;;0.20;;
36789;SDS011;22740;52.182;8.780;2023-04-24T00:31:08;1.15;;;0.32;;
36789;SDS011;22740;52.182;8.780;2023-04-24T00:37:16;0.52;;;0.30;;
36789;SDS011;22740;52.182;8.780;2023-04-24T00:43:24;1.45;;;0.30;;
36789;SDS011;22740;52.182;8.780;2023-04-24T00:49:40;0.98;;;0.40;;
36789;SDS011;22740;52.182;8.780;2023-04-24T00:55:48;0.65;;;0.30;;
36789;SDS011;22740;52.182;8.780;2023-04-24T01:01:58;1.30;;;0.50;;
36789;SDS011;22740;52.182;8.780;2023-04-24T01:08:06;1.48;;;0.50;;
36789;SDS011;22740;52.182;8.780;2023-04-24T01:14:15;3.13;;;0.40;;
36789;SDS011;22740;52.182;8.780;2023-04-24T01:20:23;1.48;;;0.43;;
36789;SDS011;22740;52.182;8.780;2023-04-24T01:26:33;0.88;;;0.40;;
36789;SDS011;22740;52.182;8.780;2023-04-24T01:32:52;0.85;;;0.40;;
36789;SDS011;22740;52.182;8.780;2023-04-24T01:39:01;1.13;;;0.63;;
36789;SDS011;22740;52.182;8.780;2023-04-24T01:45:10;0.75;;;0.50;;
36789;SDS011;22740;52.182;8.780;2023-04-24T01:51:19;0.75;;;0.55;;
36789;SDS011;22740;52.182;8.780;2023-04-24T01:57:28;1.40;;;0.68;;
36789;SDS011;22740;52.182;8.780;2023-04-24T02:03:38;2.00;;;0.90;;
36789;SDS011;22740;52.182;8.780;2023-04-24T02:09:47;2.17;;;0.60;;
36789;SDS011;22740;52.182;8.780;2023-04-24T02:15:56;1.02;;;0.60;;
36789;SDS011;22740;52.182;8.780;2023-04-24T02:22:06;1.88;;;0.47;;
36789;SDS011;22740;52.182;8.780;2023-04-24T02:28:15;0.80;;;0.50;;
36789;SDS011;22740;52.182;8.780;2023-04-24T02:34:22;1.95;;;0.68;;
36789;SDS011;22740;52.182;8.780;2023-04-24T02:40:32;1.85;;;1.05;;
36789;SDS011;22740;52.182;8.780;2023-04-24T02:46:40;2.65;;;1.00;;
36789;SDS011;22740;52.182;8.780;2023-04-24T02:52:49;4.05;;;1.08;;
36789;SDS011;22740;52.182;8.780;2023-04-24T02:58:57;2.47;;;1.20;;
36789;SDS011;22740;52.182;8.780;2023-04-24T03:05:06;2.88;;;1.10;;
36789;SDS011;22740;52.182;8.780;2023-04-24T03:11:15;2.97;;;1.10;;
36789;SDS011;22740;52.182;8.780;2023-04-24T03:17:23;2.15;;;1.00;;
36789;SDS011;22740;52.182;8.780;2023-04-24T03:23:38;2.53;;;0.80;;
36789;SDS011;22740;52.182;8.780;2023-04-24T03:29:46;3.28;;;0.80;;
36789;SDS011;22740;52.182;8.780;2023-04-24T03:35:54;2.03;;;0.75;;
36789;SDS011;22740;52.182;8.780;2023-04-24T03:42:03;1.92;;;0.85;;
36789;SDS011;22740;52.182;8.780;2023-04-24T03:48:11;2.03;;;1.00;;
36789;SDS011;22740;52.182;8.780;2023-04-24T03:54:21;2.33;;;0.65;;
36789;SDS011;22740;52.182;8.780;2023-04-24T04:00:29;3.38;;;0.95;;
36789;SDS011;22740;52.182;8.780;2023-04-24T04:06:40;1.80;;;0.90;;
36789;SDS011;22740;52.182;8.780;2023-04-24T04:12:48;1.33;;;0.80;;
36789;SDS011;22740;52.182;8.780;2023-04-24T04:18:57;2.20;;;1.20;;
36789;SDS011;22740;52.182;8.780;2023-04-24T04:25:05;2.00;;;1.10;;
36789;SDS011;22740;52.182;8.780;2023-04-24T04:31:21;2.35;;;1.63;;
36789;SDS011;22740;52.182;8.780;2023-04-24T04:37:31;3.28;;;1.38;;
36789;SDS011;22740;52.182;8.780;2023-04-24T04:43:40;4.05;;;1.50;;
36789;SDS011;22740;52.182;8.780;2023-04-24T04:49:50;3.13;;;1.55;;
36789;SDS011;22740;52.182;8.780;2023-04-24T04:55:59;3.35;;;1.58;;
36789;SDS011;22740;52.182;8.780;2023-04-24T05:02:08;2.92;;;1.70;;
36789;SDS011;22740;52.182;8.780;2023-04-24T05:08:18;3.17;;;2.30;;
36789;SDS011;22740;52.182;8.780;2023-04-24T05:14:28;3.58;;;2.20;;
36789;SDS011;22740;52.182;8.780;2023-04-24T05:20:37;4.38;;;3.00;;
36789;SDS011;22740;52.182;8.780;2023-04-24T05:26:44;5.80;;;3.72;;
36789;SDS011;22740;52.182;8.780;2023-04-24T05:32:54;9.52;;;5.10;;
36789;SDS011;22740;52.182;8.780;2023-04-24T05:39:03;10.90;;;5.88;;
36789;SDS011;22740;52.182;8.780;2023-04-24T05:45:13;8.45;;;5.93;;
36789;SDS011;22740;52.182;8.780;2023-04-24T05:51:24;10.65;;;5.88;;
36789;SDS011;22740;52.182;8.780;2023-04-24T05:57:35;10.05;;;6.22;;
36789;SDS011;22740;52.182;8.780;2023-04-24T06:03:44;13.05;;;7.22;;
36789;SDS011;22740;52.182;8.780;2023-04-24T06:09:53;10.75;;;6.93;;
36789;SDS011;22740;52.182;8.780;2023-04-24T06:16:02;12.68;;;6.85;;
36789;SDS011;22740;52.182;8.780;2023-04-24T06:22:11;12.30;;;7.28;;
36789;SDS011;22740;52.182;8.780;2023-04-24T06:28:20;12.55;;;7.70;;
36789;SDS011;22740;52.182;8.780;2023-04-24T06:34:29;14.18;;;7.68;;
36789;SDS011;22740;52.182;8.780;2023-04-24T06:40:39;13.05;;;8.18;;
36789;SDS011;22740;52.182;8.780;2023-04-24T06:46:48;12.93;;;8.05;;
36789;SDS011;22740;52.182;8.780;2023-04-24T06:52:57;13.13;;;8.88;;
36789;SDS011;22740;52.182;8.780;2023-04-24T06:59:05;12.30;;;8.50;;
36789;SDS011;22740;52.182;8.780;2023-04-24T07:05:13;13.10;;;8.73;;
36789;SDS011;22740;52.182;8.780;2023-04-24T07:11:23;12.95;;;8.98;;
36789;SDS011;22740;52.182;8.780;2023-04-24T07:17:32;12.82;;;9.02;;
36789;SDS011;22740;52.182;8.780;2023-04-24T07:23:43;12.90;;;8.60;;
36789;SDS011;22740;52.182;8.780;2023-04-24T07:29:51;17.83;;;8.77;;
36789;SDS011;22740;52.182;8.780;2023-04-24T07:35:59;14.20;;;8.43;;
36789;SDS011;22740;52.182;8.780;2023-04-24T07:42:08;13.40;;;8.15;;
36789;SDS011;22740;52.182;8.780;2023-04-24T07:48:17;11.05;;;7.68;;
36789;SDS011;22740;52.182;8.780;2023-04-24T07:54:33;12.10;;;7.40;;
36789;SDS011;22740;52.182;8.780;2023-04-24T08:00:43;10.07;;;6.75;;
36789;SDS011;22740;52.182;8.780;2023-04-24T08:06:52;9.48;;;6.63;;
36789;SDS011;22740;52.182;8.780;2023-04-24T08:13:01;11.55;;;7.25;;
36789;SDS011;22740;52.182;8.780;2023-04-24T08:19:10;8.88;;;6.22;;
36789;SDS011;22740;52.182;8.780;2023-04-24T08:25:25;9.68;;;6.32;;
36789;SDS011;22740;52.182;8.780;2023-04-24T08:31:34;8.60;;;5.40;;
36789;SDS011;22740;52.182;8.780;2023-04-24T08:37:43;6.35;;;4.38;;
36789;SDS011;22740;52.182;8.780;2023-04-24T08:43:51;6.47;;;4.53;;
36789;SDS011;22740;52.182;8.780;2023-04-24T08:50:02;5.82;;;4.40;;
36789;SDS011;22740;52.182;8.780;2023-04-24T08:56:13;5.38;;;3.85;;
36789;SDS011;22740;52.182;8.780;2023-04-24T09:02:22;5.25;;;3.38;;
36789;SDS011;22740;52.182;8.780;2023-04-24T09:08:32;6.10;;;2.90;;
36789;SDS011;22740;52.182;8.780;2023-04-24T09:14:40;3.65;;;2.20;;
36789;SDS011;22740;52.182;8.780;2023-04-24T09:27:12;3.05;;;1.75;;
36789;SDS011;22740;52.182;8.780;2023-04-24T09:33:20;2.83;;;1.80;;
36789;SDS011;22740;52.182;8.780;2023-04-24T09:39:28;3.53;;;1.70;;
36789;SDS011;22740;52.182;8.780;2023-04-24T09:45:37;3.95;;;2.60;;
36789;SDS011;22740;52.182;8.780;2023-04-24T09:51:47;3.65;;;2.08;;
36789;SDS011;22740;52.182;8.780;2023-04-24T09:57:56;7.00;;;1.90;;
36789;SDS011;22740;52.182;8.780;2023-04-24T10:04:22;2.40;;;1.70;;
36789;SDS011;22740;52.182;8.780;2023-04-24T10:10:33;2.20;;;1.20;;
36789;SDS011;22740;52.182;8.780;2023-04-24T10:16:45;2.13;;;1.23;;
36789;SDS011;22740;52.182;8.780;2023-04-24T10:22:57;2.15;;;1.38;;
36789;SDS011;22740;52.182;8.780;2023-04-24T10:29:07;2.53;;;1.23;;
36789;SDS011;22740;52.182;8.780;2023-04-24T10:35:18;2.63;;;1.40;;
36789;SDS011;22740;52.182;8.780;2023-04-24T10:41:30;2.00;;;1.23;;
36789;SDS011;22740;52.182;8.780;2023-04-24T10:48:01;2.45;;;1.30;;
36789;SDS011;22740;52.182;8.780;2023-04-24T10:54:25;1.40;;;0.98;;
36789;SDS011;22740;52.182;8.780;2023-04-24T11:00:36;2.15;;;1.20;;
36789;SDS011;22740;52.182;8.780;2023-04-24T11:06:49;2.75;;;1.40;;
36789;SDS011;22740;52.182;8.780;2023-04-24T11:13:01;2.25;;;1.50;;
36789;SDS011;22740;52.182;8.780;2023-04-24T11:25:24;3.55;;;2.53;;
36789;SDS011;22740;52.182;8.780;2023-04-24T11:31:43;4.70;;;2.35;;
36789;SDS011;22740;52.182;8.780;2023-04-24T11:38:01;3.17;;;2.65;;
36789;SDS011;22740;52.182;8.780;2023-04-24T11:44:24;5.32;;;2.72;;
36789;SDS011;22740;52.182;8.780;2023-04-24T11:50:32;3.95;;;2.45;;
36789;SDS011;22740;52.182;8.780;2023-04-24T11:56:44;3.65;;;3.08;;
36789;SDS011;22740;52.182;8.780;2023-04-24T12:03:10;2.97;;;2.50;;
36789;SDS011;22740;52.182;8.780;2023-04-24T12:09:19;2.72;;;1.73;;
36789;SDS011;22740;52.182;8.780;2023-04-24T12:15:27;4.20;;;1.90;;
36789;SDS011;22740;52.182;8.780;2023-04-24T12:21:37;2.03;;;1.00;;
36789;SDS011;22740;52.182;8.780;2023-04-24T12:27:52;1.15;;;0.65;;
36789;SDS011;22740;52.182;8.780;2023-04-24T12:34:02;1.00;;;0.60;;
36789;SDS011;22740;52.182;8.780;2023-04-24T12:40:11;1.90;;;0.90;;
36789;SDS011;22740;52.182;8.780;2023-04-24T12:46:21;3.17;;;1.13;;
36789;SDS011;22740;52.182;8.780;2023-04-24T12:52:30;2.40;;;1.27;;
36789;SDS011;22740;52.182;8.780;2023-04-24T12:58:39;2.47;;;1.42;;
36789;SDS011;22740;52.182;8.780;2023-04-24T13:04:48;4.13;;;1.67;;
36789;SDS011;22740;52.182;8.780;2023-04-24T13:10:57;4.18;;;2.30;;
36789;SDS011;22740;52.182;8.780;2023-04-24T13:17:12;4.00;;;2.83;;
36789;SDS011;22740;52.182;8.780;2023-04-24T13:23:34;7.57;;;3.38;;
36789;SDS011;22740;52.182;8.780;2023-04-24T13:29:43;4.53;;;2.35;;
36789;SDS011;22740;52.182;8.780;2023-04-24T13:35:51;6.00;;;2.83;;
36789;SDS011;22740;52.182;8.780;2023-04-24T13:41:59;6.50;;;2.63;;
36789;SDS011;22740;52.182;8.780;2023-04-24T13:48:08;6.70;;;2.75;;
36789;SDS011;22740;52.182;8.780;2023-04-24T13:54:20;5.57;;;2.78;;
36789;SDS011;22740;52.182;8.780;2023-04-24T14:00:29;8.95;;;2.90;;
36789;SDS011;22740;52.182;8.780;2023-04-24T14:06:39;7.80;;;3.35;;
36789;SDS011;22740;52.182;8.780;2023-04-24T14:12:48;7.13;;;4.22;;
36789;SDS011;22740;52.182;8.780;2023-04-24T14:18:56;8.27;;;3.30;;
36789;SDS011;22740;52.182;8.780;2023-04-24T14:25:05;7.78;;;4.25;;
36789;SDS011;22740;52.182;8.780;2023-04-24T14:31:15;11.07;;;4.28;;
36789;SDS011;22740;52.182;8.780;2023-04-24T14:37:23;7.75;;;3.50;;
36789;SDS011;22740;52.182;8.780;2023-04-24T14:43:32;10.50;;;3.80;;
36789;SDS011;22740;52.182;8.780;2023-04-24T14:49:43;7.85;;;4.13;;
36789;SDS011;22740;52.182;8.780;2023-04-24T14:55:52;12.43;;;4.35;;
36789;SDS011;22740;52.182;8.780;2023-04-24T15:02:00;11.02;;;5.00;;
36789;SDS011;22740;52.182;8.780;2023-04-24T15:08:16;12.63;;;4.60;;
36789;SDS011;22740;52.182;8.780;2023-04-24T15:14:25;10.18;;;4.70;;
36789;SDS011;22740;52.182;8.780;2023-04-24T15:20:34;10.13;;;4.10;;
36789;SDS011;22740;52.182;8.780;2023-04-24T15:26:43;9.77;;;4.45;;
36789;SDS011;22740;52.182;8.780;2023-04-24T15:33:00;11.82;;;4.70;;
36789;SDS011;22740;52.182;8.780;2023-04-24T15:39:10;10.52;;;4.30;;
36789;SDS011;22740;52.182;8.780;2023-04-24T15:45:19;8.55;;;3.83;;
36789;SDS011;22740;52.182;8.780;2023-04-24T15:51:26;6.38;;;3.95;;
36789;SDS011;22740;52.182;8.780;2023-04-24T15:57:35;10.30;;;4.07;;
36789;SDS011;22740;52.182;8.780;2023-04-24T16:03:42;10.80;;;3.63;;
36789;SDS011;22740;52.182;8.780;2023-04-24T16:09:52;6.32;;;3.45;;
36789;SDS011;22740;52.182;8.780;2023-04-24T16:16:01;6.75;;;3.70;;
36789;SDS011;22740;52.182;8.780;2023-04-24T16:22:10;5.75;;;2.53;;
36789;SDS011;22740;52.182;8.780;2023-04-24T16:28:19;4.80;;;2.45;;
36789;SDS011;22740;52.182;8.780;2023-04-24T16:34:28;3.38;;;1.90;;
36789;SDS011;22740;52.182;8.780;2023-04-24T16:40:37;3.85;;;1.80;;
36789;SDS011;22740;52.182;8.780;2023-04-24T16:46:46;3.60;;;1.98;;
36789;SDS011;22740;52.182;8.780;2023-04-24T16:52:55;4.70;;;1.63;;
36789;SDS011;22740;52.182;8.780;2023-04-24T16:59:03;3.17;;;1.70;;
36789;SDS011;22740;52.182;8.780;2023-04-24T17:05:11;3.40;;;1.33;;
36789;SDS011;22740;52.182;8.780;2023-04-24T17:11:19;3.08;;;1.48;;
36789;SDS011;22740;52.182;8.780;2023-04-24T17:17:31;2.92;;;1.33;;
36789;SDS011;22740;52.182;8.780;2023-04-24T17:23:40;2.67;;;1.33;;
36789;SDS011;22740;52.182;8.780;2023-04-24T17:29:49;7.35;;;1.90;;
36789;SDS011;22740;52.182;8.780;2023-04-24T17:36:00;3.80;;;2.03;;
36789;SDS011;22740;52.182;8.780;2023-04-24T17:42:08;5.72;;;1.50;;
36789;SDS011;22740;52.182;8.780;2023-04-24T17:48:18;3.15;;;1.50;;
36789;SDS011;22740;52.182;8.780;2023-04-24T17:54:33;6.45;;;1.95;;
36789;SDS011;22740;52.182;8.780;2023-04-24T18:00:45;4.75;;;2.33;;
36789;SDS011;22740;52.182;8.780;2023-04-24T18:06:54;6.38;;;2.00;;
36789;SDS011;22740;52.182;8.780;2023-04-24T18:13:02;7.70;;;2.53;;
36789;SDS011;22740;52.182;8.780;2023-04-24T18:19:11;5.57;;;2.20;;
36789;SDS011;22740;52.182;8.780;2023-04-24T18:25:26;6.28;;;2.58;;
36789;SDS011;22740;52.182;8.780;2023-04-24T18:31:34;7.35;;;2.38;;
36789;SDS011;22740;52.182;8.780;2023-04-24T18:37:43;8.65;;;3.20;;
36789;SDS011;22740;52.182;8.780;2023-04-24T18:43:52;9.30;;;2.60;;
36789;SDS011;22740;52.182;8.780;2023-04-24T18:50:00;11.27;;;4.18;;
36789;SDS011;22740;52.182;8.780;2023-04-24T18:56:08;9.82;;;2.63;;
36789;SDS011;22740;52.182;8.780;2023-04-24T19:02:17;7.18;;;2.50;;
36789;SDS011;22740;52.182;8.780;2023-04-24T19:08:25;12.05;;;3.03;;
36789;SDS011;22740;52.182;8.780;2023-04-24T19:14:34;9.77;;;2.80;;
36789;SDS011;22740;52.182;8.780;2023-04-24T19:20:43;8.05;;;2.70;;
36789;SDS011;22740;52.182;8.780;2023-04-24T19:26:52;10.27;;;3.35;;
36789;SDS011;22740;52.182;8.780;2023-04-24T19:33:08;11.93;;;3.13;;
36789;SDS011;22740;52.182;8.780;2023-04-24T19:39:17;7.95;;;2.67;;
36789;SDS011;22740;52.182;8.780;2023-04-24T19:45:26;8.13;;;2.65;;
36789;SDS011;22740;52.182;8.780;2023-04-24T19:51:35;11.15;;;3.10;;
36789;SDS011;22740;52.182;8.780;2023-04-24T19:57:44;11.60;;;2.83;;
36789;SDS011;22740;52.182;8.780;2023-04-24T20:03:53;11.55;;;3.10;;
36789;SDS011;22740;52.182;8.780;2023-04-24T20:10:02;8.45;;;2.90;;
36789;SDS011;22740;52.182;8.780;2023-04-24T20:16:10;8.20;;;3.13;;
36789;SDS011;22740;52.182;8.780;2023-04-24T20:22:25;13.30;;;3.17;;
36789;SDS011;22740;52.182;8.780;2023-04-24T20:28:34;11.07;;;2.95;;
36789;SDS011;22740;52.182;8.780;2023-04-24T20:34:50;11.15;;;3.13;;
36789;SDS011;22740;52.182;8.780;2023-04-24T20:40:59;8.00;;;3.28;;
36789;SDS011;22740;52.182;8.780;2023-04-24T20:47:08;12.55;;;4.97;;
36789;SDS011;22740;52.182;8.780;2023-04-24T20:53:17;9.35;;;3.08;;
36789;SDS011;22740;52.182;8.780;2023-04-24T20:59:25;9.85;;;3.67;;
36789;SDS011;22740;52.182;8.780;2023-04-24T21:05:34;9.95;;;3.10;;
36789;SDS011;22740;52.182;8.780;2023-04-24T21:11:43;11.52;;;3.10;;
36789;SDS011;22740;52.182;8.780;2023-04-24T21:17:52;11.52;;;3.08;;
36789;SDS011;22740;52.182;8.780;2023-04-24T21:24:01;11.02;;;3.20;;
36789;SDS011;22740;52.182;8.780;2023-04-24T21:30:11;8.57;;;3.00;;
36789;SDS011;22740;52.182;8.780;2023-04-24T21:36:20;8.55;;;3.28;;
36789;SDS011;22740;52.182;8.780;2023-04-24T21:42:31;12.07;;;4.10;;
36789;SDS011;22740;52.182;8.780;2023-04-24T21:48:40;13.65;;;3.67;;
36789;SDS011;22740;52.182;8.780;2023-04-24T21:54:49;10.05;;;3.30;;
36789;SDS011;22740;52.182;8.780;2023-04-24T22:00:58;8.73;;;3.70;;
36789;SDS011;22740;52.182;8.780;2023-04-24T22:07:07;14.88;;;4.00;;
36789;SDS011;22740;52.182;8.780;2023-04-24T22:13:15;10.20;;;3.35;;
36789;SDS011;22740;52.182;8.780;2023-04-24T22:19:27;13.63;;;3.67;;
36789;SDS011;22740;52.182;8.780;2023-04-24T22:25:35;13.85;;;4.15;;
36789;SDS011;22740;52.182;8.780;2023-04-24T22:31:44;9.82;;;3.72;;
36789;SDS011;22740;52.182;8.780;2023-04-24T22:37:54;9.18;;;3.60;;
36789;SDS011;22740;52.182;8.780;2023-04-24T22:44:03;14.02;;;4.22;;
36789;SDS011;22740;52.182;8.780;2023-04-24T22:50:12;15.68;;;4.15;;
36789;SDS011;22740;52.182;8.780;2023-04-24T22:56:21;15.30;;;4.25;;
36789;SDS011;22740;52.182;8.780;2023-04-24T23:02:30;15.65;;;4.47;;
36789;SDS011;22740;52.182;8.780;2023-04-24T23:08:39;10.70;;;4.43;;
36789;SDS011;22740;52.182;8.780;2023-04-24T23:14:48;10.95;;;4.00;;
36789;SDS011;22740;52.182;8.780;2023-04-24T23:20:57;11.82;;;3.85;;
36789;SDS011;22740;52.182;8.780;2023-04-24T23:27:15;15.98;;;4.55;;
36789;SDS011;22740;52.182;8.780;2023-04-24T23:33:23;12.32;;;4.00;;
36789;SDS011;22740;52.182;8.780;2023-04-24T23:39:33;15.20;;;4.72;;
36789;SDS011;22740;52.182;8.780;2023-04-24T23:45:42;16.25;;;4.65;;
36789;SDS011;22740;52.182;8.780;2023-04-24T23:51:51;17.05;;;5.38;;
36789;SDS011;22740;52.182;8.780;2023-04-24T23:57:59;12.05;;;4.85;;
